Time;durP1;ratioP1;P1;durP2;ratioP2;P2;SDS_P1;SDS_P2;PMS_P1;PMS_P2;Temp;Humidity;BMP_temperature;BMP_pressure;BME280_temperature;BME280_humidity;BME280_pressure;Samples;Min_cycle;Max_cycle;Signal;HPM_P1;HPM_P2
2023/06/27 00:00:13;;;;;;;0.40;0.40;;;;;;;24.31;41.19;100958.31;4510038;28;20026;-64
2023/06/27 00:02:23;;;;;;;0.68;0.40;;;;;;;24.32;40.56;100965.78;4508681;28;20104;-64
2023/06/27 00:04:34;;;;;;;0.28;0.22;;;;;;;24.28;40.94;100961.13;4515125;28;20033;-64
2023/06/27 00:06:46;;;;;;;0.63;0.40;;;;;;;24.34;40.63;100977.75;4508458;28;20065;-64
2023/06/27 00:08:56;;;;;;;0.38;0.30;;;;;;;24.33;40.93;100967.44;4507596;28;20038;-64
2023/06/27 00:11:06;;;;;;;1.13;0.40;;;;;;;24.35;40.84;100982.31;4508755;28;20473;-64
2023/06/27 00:13:17;;;;;;;0.40;0.38;;;;;;;24.31;40.38;100972.75;4508408;28;20060;-64
2023/06/27 00:15:33;;;;;;;0.80;0.60;;;;;;;24.32;40.90;100980.22;4508148;28;20109;-64
2023/06/27 00:17:44;;;;;;;0.40;0.40;;;;;;;24.32;40.81;100976.47;4507108;28;20088;-65
2023/06/27 00:19:58;;;;;;;0.30;0.30;;;;;;;24.35;41.10;100985.22;4507199;28;20094;-64
2023/06/27 00:22:09;;;;;;;0.38;0.38;;;;;;;24.35;41.46;100978.59;4508686;28;20124;-64
2023/06/27 00:24:19;;;;;;;0.43;0.40;;;;;;;24.34;41.90;100977.75;4508080;28;20033;-64
2023/06/27 00:26:30;;;;;;;0.47;0.40;;;;;;;24.33;41.88;100976.09;4509357;28;20046;-64
2023/06/27 00:28:41;;;;;;;0.75;0.40;;;;;;;24.32;42.18;100974.44;4508999;28;20026;-65
2023/06/27 00:30:51;;;;;;;0.38;0.38;;;;;;;24.36;41.96;100981.09;4508456;28;20080;-64
2023/06/27 00:33:02;;;;;;;0.45;0.40;;;;;;;24.30;42.07;100971.09;4505969;28;20500;-63
2023/06/27 00:35:15;;;;;;;0.52;0.35;;;;;;;24.33;42.11;100978.13;4514153;28;20072;-64
2023/06/27 00:37:25;;;;;;;0.30;0.30;;;;;;;24.35;42.15;100979.44;4508116;28;20548;-64
2023/06/27 00:39:36;;;;;;;0.43;0.40;;;;;;;24.35;42.12;100985.22;4507793;28;20030;-64
2023/06/27 00:41:47;;;;;;;0.38;0.30;;;;;;;24.33;42.27;100987.63;4514742;28;20087;-64
2023/06/27 00:43:58;;;;;;;0.40;0.40;;;;;;;24.35;41.82;100990.97;4507935;28;20969;-64
2023/06/27 00:46:10;;;;;;;0.30;0.30;;;;;;;24.35;41.38;100988.09;4508079;28;20037;-64
2023/06/27 00:48:23;;;;;;;0.43;0.40;;;;;;;24.35;41.46;100982.31;4508179;28;20202;-64
2023/06/27 00:50:35;;;;;;;0.40;0.40;;;;;;;24.32;40.78;100973.59;4508367;28;20040;-65
2023/06/27 00:52:46;;;;;;;0.30;0.30;;;;;;;24.34;40.99;100980.63;4513535;28;20052;-64
2023/06/27 00:54:57;;;;;;;0.60;0.45;;;;;;;24.35;40.83;100981.47;4508171;28;20084;-64
2023/06/27 00:57:09;;;;;;;0.95;0.40;;;;;;;24.34;40.90;100988.47;4506338;28;20038;-64
2023/06/27 00:59:20;;;;;;;0.57;0.40;;;;;;;24.26;40.91;100967.28;4508246;28;20029;-66
2023/06/27 01:01:31;;;;;;;0.60;0.50;;;;;;;24.33;41.21;100975.25;4505576;28;20084;-64
2023/06/27 01:03:42;;;;;;;0.30;0.30;;;;;;;24.34;41.17;100977.75;4509597;28;20108;-64
2023/06/27 01:05:52;;;;;;;0.30;0.30;;;;;;;24.30;40.78;100976.88;4508415;28;20040;-64
2023/06/27 01:08:09;;;;;;;0.50;0.50;;;;;;;24.32;40.93;100977.31;4509335;28;20049;-64
2023/06/27 01:10:38;;;;;;;0.50;0.40;;;;;;;24.27;41.07;100974.75;4508319;28;20099;-64
2023/06/27 01:13:47;;;;;;;0.40;0.40;;;;;;;24.34;40.87;100991.38;4523926;28;20180;-64
2023/06/27 01:15:59;;;;;;;1.10;0.40;;;;;;;24.30;40.77;100976.88;4444080;28;20047;-64
2023/06/27 01:18:13;;;;;;;0.40;0.40;;;;;;;24.33;41.03;100987.63;4443596;28;20050;-64
2023/06/27 01:20:24;;;;;;;0.38;0.38;;;;;;;24.33;41.21;100983.91;4457291;28;20054;-64
2023/06/27 01:22:56;;;;;;;0.40;0.40;;;;;;;24.33;41.23;100981.03;4514768;28;20038;-64
2023/06/27 01:25:07;;;;;;;0.50;0.40;;;;;;;24.31;41.11;100990.06;4508419;28;20034;-64
2023/06/27 01:27:20;;;;;;;0.77;0.47;;;;;;;24.29;41.34;100978.06;4506199;28;20053;-64
2023/06/27 01:29:31;;;;;;;0.40;0.40;;;;;;;24.32;41.02;100977.31;4507248;28;20109;-64
2023/06/27 01:32:03;;;;;;;0.50;0.50;;;;;;;24.25;41.03;100977.19;4507147;28;20030;-64
2023/06/27 01:34:37;;;;;;;0.70;0.40;;;;;;;24.31;40.62;100983.47;4514414;28;20049;-64
2023/06/27 01:36:56;;;;;;;0.45;0.35;;;;;;;24.30;40.20;100984.69;4506197;28;20042;-64
2023/06/27 01:39:29;;;;;;;0.88;0.40;;;;;;;24.27;40.73;100973.91;4507230;28;20053;-65
2023/06/27 01:41:43;;;;;;;0.32;0.32;;;;;;;24.28;40.90;100970.63;4505188;28;20112;-64
2023/06/27 01:43:54;;;;;;;1.15;0.40;;;;;;;24.29;40.94;100975.19;4498998;28;20133;-64
2023/06/27 01:46:05;;;;;;;0.45;0.40;;;;;;;24.29;40.96;100980.94;4508604;28;20053;-64
2023/06/27 01:48:17;;;;;;;0.45;0.43;;;;;;;24.30;41.05;100981.78;4509526;28;20056;-64
2023/06/27 01:50:28;;;;;;;0.88;0.43;;;;;;;24.29;40.86;100974.38;4509823;28;20661;-64
2023/06/27 01:52:38;;;;;;;0.80;0.40;;;;;;;24.30;41.27;100976.88;4512074;28;20033;-64
2023/06/27 01:54:49;;;;;;;0.43;0.43;;;;;;;24.31;40.38;100978.53;4511194;28;20065;-64
2023/06/27 01:56:59;;;;;;;0.35;0.35;;;;;;;24.30;41.03;100976.88;4509573;28;20038;-64
2023/06/27 01:59:10;;;;;;;0.50;0.50;;;;;;;24.28;41.21;100964.88;4510266;28;20145;-64
2023/06/27 02:01:21;;;;;;;0.40;0.40;;;;;;;24.29;41.39;100965.72;4518292;28;20060;-64
2023/06/27 02:03:31;;;;;;;0.32;0.30;;;;;;;24.24;41.51;100963.13;4508922;28;20037;-64
2023/06/27 02:05:41;;;;;;;0.43;0.40;;;;;;;24.28;41.67;100961.97;4510524;28;20034;-64
2023/06/27 02:07:53;;;;;;;0.40;0.40;;;;;;;24.14;41.45;100938.63;4510947;28;20627;-64
2023/06/27 02:10:04;;;;;;;0.50;0.50;;;;;;;24.28;41.51;100961.13;4511233;28;20093;-64
2023/06/27 02:12:15;;;;;;;0.40;0.40;;;;;;;24.27;41.44;100956.59;4510537;28;20029;-64
2023/06/27 02:14:25;;;;;;;0.50;0.50;;;;;;;24.27;41.30;100957.44;4511330;28;20044;-64
2023/06/27 02:16:36;;;;;;;0.75;0.40;;;;;;;24.28;41.01;100959.09;4510651;28;20037;-65
2023/06/27 02:18:47;;;;;;;0.57;0.50;;;;;;;24.26;41.48;100955.75;4510748;28;20421;-64
2023/06/27 02:20:57;;;;;;;0.55;0.50;;;;;;;24.26;41.30;100952.06;4512002;28;20586;-64
2023/06/27 02:23:07;;;;;;;0.60;0.45;;;;;;;24.28;41.16;100952.47;4516638;28;20076;-64
2023/06/27 02:25:18;;;;;;;0.90;0.50;;;;;;;24.28;41.17;100952.47;4510693;28;20140;-66
2023/06/27 02:27:29;;;;;;;0.50;0.50;;;;;;;24.26;41.22;100952.88;4510269;28;20046;-65
2023/06/27 02:29:39;;;;;;;0.47;0.47;;;;;;;24.26;41.40;100952.88;4510121;28;20055;-64
2023/06/27 02:31:50;;;;;;;0.40;0.40;;;;;;;24.26;41.24;100947.09;4516873;28;21353;-64
2023/06/27 02:34:01;;;;;;;0.45;0.45;;;;;;;24.24;41.06;100948.72;4509871;28;20199;-64
2023/06/27 02:36:11;;;;;;;0.52;0.50;;;;;;;24.14;41.11;100927.09;4508487;28;20038;-64
2023/06/27 02:38:23;;;;;;;0.45;0.45;;;;;;;24.26;41.25;100947.09;4516287;28;20037;-64
2023/06/27 02:40:33;;;;;;;1.05;0.50;;;;;;;24.26;41.15;100946.28;4509203;28;20034;-64
2023/06/27 02:42:44;;;;;;;0.57;0.40;;;;;;;24.25;41.08;100939.69;4510882;28;20061;-64
2023/06/27 02:44:54;;;;;;;0.60;0.40;;;;;;;24.20;40.90;100931.34;4510105;28;20581;-64
2023/06/27 02:47:06;;;;;;;0.50;0.50;;;;;;;24.22;40.55;100937.56;4510165;28;20033;-64
2023/06/27 02:49:16;;;;;;;0.70;0.60;;;;;;;24.14;40.54;100923.38;4509888;28;20502;-64
2023/06/27 02:51:26;;;;;;;0.73;0.50;;;;;;;24.23;40.75;100938.41;4507923;28;20085;-65
2023/06/27 02:53:37;;;;;;;0.88;0.52;;;;;;;24.25;41.14;100939.69;4516734;28;20155;-65
2023/06/27 02:55:48;;;;;;;0.55;0.50;;;;;;;24.24;40.86;100940.91;4516151;28;20464;-65
2023/06/27 02:57:59;;;;;;;0.55;0.50;;;;;;;24.24;40.93;100946.66;4515644;28;20033;-65
2023/06/27 03:00:11;;;;;;;0.52;0.50;;;;;;;24.21;41.28;100944.56;4516167;28;20049;-65
2023/06/27 03:02:22;;;;;;;0.75;0.60;;;;;;;24.24;41.30;100948.72;4515897;28;20773;-65
2023/06/27 03:04:32;;;;;;;0.50;0.50;;;;;;;24.22;41.25;100946.22;4514355;28;20660;-65
2023/06/27 03:06:43;;;;;;;0.55;0.55;;;;;;;24.23;40.93;100942.09;4516078;28;20052;-64
2023/06/27 03:08:54;;;;;;;0.50;0.50;;;;;;;24.23;41.30;100944.97;4509895;28;20034;-66
2023/06/27 03:11:05;;;;;;;0.50;0.50;;;;;;;24.22;41.44;100945.38;4515777;28;20033;-64
2023/06/27 03:13:16;;;;;;;0.85;0.50;;;;;;;24.23;41.12;100941.28;4509005;28;20030;-65
2023/06/27 03:15:26;;;;;;;0.40;0.40;;;;;;;24.22;41.25;100946.22;4515788;28;20581;-65
2023/06/27 03:17:37;;;;;;;0.90;0.60;;;;;;;24.21;41.16;100950.31;4509311;28;20068;-64
2023/06/27 03:19:48;;;;;;;0.38;0.35;;;;;;;24.20;41.11;100951.53;4508399;28;20039;-66
2023/06/27 03:22:00;;;;;;;0.75;0.57;;;;;;;24.23;40.99;100953.63;4516552;28;20026;-67
2023/06/27 03:24:10;;;;;;;0.40;0.40;;;;;;;24.21;40.62;100946.59;4510053;28;21033;-68
2023/06/27 03:26:28;;;;;;;0.47;0.40;;;;;;;24.22;41.30;100951.13;4515427;28;20037;-64
2023/06/27 03:28:40;;;;;;;0.50;0.50;;;;;;;24.20;41.55;100954.41;4509006;28;20598;-64
2023/06/27 03:30:50;;;;;;;0.55;0.50;;;;;;;24.22;41.76;100957.75;4507572;28;20072;-66
2023/06/27 03:33:02;;;;;;;0.70;0.60;;;;;;;24.24;41.81;100958.22;4507709;28;20607;-67
2023/06/27 03:35:13;;;;;;;0.60;0.50;;;;;;;24.19;42.04;100952.75;4506074;28;20048;-66
2023/06/27 03:37:24;;;;;;;0.80;0.50;;;;;;;24.20;41.71;100944.91;4523971;28;20029;-64
2023/06/27 03:39:34;;;;;;;0.40;0.40;;;;;;;24.23;41.81;100970.94;4516246;28;20564;-65
2023/06/27 03:41:46;;;;;;;0.95;0.45;;;;;;;24.21;41.93;100958.97;4509919;28;20603;-65
2023/06/27 03:43:56;;;;;;;0.35;0.35;;;;;;;24.22;41.76;100963.53;4508168;28;20115;-68
2023/06/27 03:46:07;;;;;;;0.60;0.60;;;;;;;24.17;42.15;100955.19;4508877;28;20034;-65
2023/06/27 03:48:18;;;;;;;0.68;0.60;;;;;;;24.21;41.73;100967.63;4509143;28;20037;-65
2023/06/27 03:50:28;;;;;;;0.50;0.50;;;;;;;24.23;41.73;100962.28;4516038;28;20488;-65
2023/06/27 03:52:39;;;;;;;0.80;0.40;;;;;;;24.22;42.15;100954.03;4507616;28;20049;-64
2023/06/27 03:54:50;;;;;;;0.85;0.50;;;;;;;24.19;41.97;100958.53;4509456;28;20536;-65
2023/06/27 03:57:00;;;;;;;0.70;0.47;;;;;;;24.20;41.92;100956.44;4515439;28;20105;-64
2023/06/27 03:59:11;;;;;;;0.50;0.50;;;;;;;24.22;41.31;100966.41;4506266;28;20042;-66
2023/06/27 04:01:21;;;;;;;0.85;0.60;;;;;;;24.21;41.23;100963.91;4507234;28;20524;-66
2023/06/27 04:03:31;;;;;;;0.50;0.50;;;;;;;24.08;41.76;100948.00;4506456;28;20038;-65
2023/06/27 04:05:42;;;;;;;0.60;0.50;;;;;;;24.22;41.85;100968.44;4510059;28;20907;-65
2023/06/27 04:07:52;;;;;;;0.45;0.45;;;;;;;24.23;41.59;100964.38;4507685;28;20095;-65
2023/06/27 04:10:03;;;;;;;0.50;0.50;;;;;;;24.22;42.08;100968.44;4508403;28;20021;-64
2023/06/27 04:12:14;;;;;;;0.40;0.40;;;;;;;24.16;41.66;100958.44;4508107;28;20037;-64
2023/06/27 04:14:25;;;;;;;1.63;0.70;;;;;;;24.18;41.56;100962.59;4515145;28;20034;-64
2023/06/27 04:16:35;;;;;;;0.40;0.40;;;;;;;24.17;41.81;100960.09;4508317;28;20410;-64
2023/06/27 04:18:46;;;;;;;0.50;0.40;;;;;;;24.19;41.99;100969.22;4508303;28;20036;-65
2023/06/27 04:20:58;;;;;;;0.50;0.50;;;;;;;24.19;41.97;100970.06;4508780;28;20035;-65
2023/06/27 04:23:09;;;;;;;0.60;0.60;;;;;;;24.19;42.06;100972.94;4505394;28;20034;-64
2023/06/27 04:25:19;;;;;;;0.50;0.50;;;;;;;24.13;41.94;100954.28;4503927;28;20033;-65
2023/06/27 04:27:30;;;;;;;0.47;0.47;;;;;;;24.20;41.82;100965.09;4512216;28;20036;-64
2023/06/27 04:29:40;;;;;;;1.05;0.60;;;;;;;24.18;42.00;100971.25;4507176;28;20061;-64
2023/06/27 04:31:51;;;;;;;1.02;0.50;;;;;;;24.18;41.55;100971.25;4493014;28;20054;-65
2023/06/27 04:34:01;;;;;;;0.40;0.40;;;;;;;24.18;42.05;100968.38;4505881;28;20038;-64
2023/06/27 04:36:15;;;;;;;0.40;0.40;;;;;;;24.18;42.08;100962.59;4505613;28;20042;-64
2023/06/27 04:38:27;;;;;;;0.43;0.43;;;;;;;24.18;41.89;100961.78;4507572;28;20593;-64
2023/06/27 04:40:37;;;;;;;0.52;0.40;;;;;;;24.14;42.21;100955.94;4506904;28;20786;-65
2023/06/27 04:42:47;;;;;;;0.43;0.32;;;;;;;24.18;42.33;100962.59;4513923;28;20030;-65
2023/06/27 04:44:58;;;;;;;0.82;0.80;;;;;;;24.18;41.91;100968.38;4507150;28;20041;-64
2023/06/27 04:47:08;;;;;;;0.52;0.52;;;;;;;24.19;42.40;100972.94;4513444;28;20128;-65
2023/06/27 04:49:19;;;;;;;0.80;0.57;;;;;;;24.18;41.95;100962.59;4507965;28;20033;-64
2023/06/27 04:51:29;;;;;;;0.65;0.50;;;;;;;24.15;42.77;100957.59;4514445;28;20119;-64
2023/06/27 04:53:40;;;;;;;0.40;0.40;;;;;;;24.19;42.60;100961.41;4508362;28;20029;-65
2023/06/27 04:55:52;;;;;;;0.60;0.50;;;;;;;24.20;42.31;100960.19;4509443;28;20048;-65
2023/06/27 04:58:02;;;;;;;0.50;0.50;;;;;;;24.16;42.33;100952.69;4514269;28;20718;-64
2023/06/27 05:00:13;;;;;;;0.60;0.50;;;;;;;24.19;42.59;100957.69;4507092;28;20120;-65
2023/06/27 05:02:23;;;;;;;0.50;0.50;;;;;;;24.15;42.26;100957.59;4509064;28;20040;-64
2023/06/27 05:04:34;;;;;;;1.02;0.60;;;;;;;24.18;42.40;100956.84;4509204;28;20042;-64
2023/06/27 05:06:44;;;;;;;0.70;0.60;;;;;;;24.17;42.03;100955.19;4508301;28;20494;-64
2023/06/27 05:08:54;;;;;;;1.02;0.57;;;;;;;24.15;41.56;100953.91;4508899;28;20037;-64
2023/06/27 05:11:05;;;;;;;0.65;0.60;;;;;;;24.15;41.74;100945.25;4506318;28;20044;-66
2023/06/27 05:13:15;;;;;;;0.65;0.50;;;;;;;24.17;41.55;100949.41;4507367;28;20059;-65
2023/06/27 05:15:27;;;;;;;0.60;0.60;;;;;;;24.19;41.67;100954.78;4507185;28;20088;-65
2023/06/27 05:17:37;;;;;;;0.50;0.50;;;;;;;24.20;41.62;100956.44;4507291;28;20030;-64
2023/06/27 05:19:47;;;;;;;0.75;0.50;;;;;;;24.16;41.53;100953.53;4504608;28;20038;-65
2023/06/27 05:21:58;;;;;;;0.70;0.52;;;;;;;24.18;41.24;100958.91;4508109;28;20064;-65
2023/06/27 05:24:08;;;;;;;0.82;0.65;;;;;;;24.17;41.07;100951.44;4508468;28;20429;-64
2023/06/27 05:26:19;;;;;;;0.88;0.63;;;;;;;24.18;41.11;100956.03;4506826;28;20046;-65
2023/06/27 05:28:29;;;;;;;0.43;0.43;;;;;;;24.18;41.38;100956.84;4507951;28;20094;-66
2023/06/27 05:30:40;;;;;;;0.60;0.60;;;;;;;24.13;41.15;100954.28;4507110;28;20034;-64
2023/06/27 05:32:50;;;;;;;0.50;0.50;;;;;;;24.13;41.06;100948.53;4521487;28;20107;-65
2023/06/27 05:35:00;;;;;;;0.40;0.40;;;;;;;24.18;41.78;100950.25;4506757;28;20030;-65
2023/06/27 05:37:11;;;;;;;0.40;0.40;;;;;;;24.17;43.24;100960.94;4506256;28;20057;-65
2023/06/27 05:39:21;;;;;;;0.55;0.55;;;;;;;24.17;43.85;100960.94;4506574;28;20029;-64
2023/06/27 05:41:32;;;;;;;0.60;0.50;;;;;;;24.15;45.17;100951.84;4508042;28;20043;-65
2023/06/27 05:43:42;;;;;;;1.35;0.70;;;;;;;24.13;43.69;100959.22;4507178;28;20048;-65
2023/06/27 05:45:53;;;;;;;0.90;0.60;;;;;;;24.13;44.80;100941.91;4505424;28;20057;-65
2023/06/27 05:48:03;;;;;;;1.05;0.70;;;;;;;24.10;43.81;100952.16;4505024;28;20041;-64
2023/06/27 05:50:14;;;;;;;0.98;0.68;;;;;;;24.11;44.37;100956.72;4514138;28;20554;-65
2023/06/27 05:52:24;;;;;;;1.10;0.75;;;;;;;24.11;45.32;100953.00;4504729;28;20042;-65
2023/06/27 05:54:35;;;;;;;0.70;0.50;;;;;;;24.10;44.96;100942.69;4505953;28;20087;-64
2023/06/27 05:56:45;;;;;;;1.08;0.80;;;;;;;24.05;44.90;100949.59;4504570;28;20025;-65
2023/06/27 05:58:56;;;;;;;1.00;0.80;;;;;;;24.00;43.78;100938.38;4505659;28;20040;-64
2023/06/27 06:01:06;;;;;;;0.90;0.80;;;;;;;24.08;43.88;100948.84;4512134;28;21044;-65
2023/06/27 06:03:16;;;;;;;1.08;0.60;;;;;;;24.08;43.47;100956.66;4504714;28;20036;-63
2023/06/27 06:05:27;;;;;;;0.98;0.70;;;;;;;24.10;44.07;100954.22;4506436;28;20128;-63
2023/06/27 06:07:41;;;;;;;0.70;0.70;;;;;;;24.10;45.22;100960.78;4505292;28;20091;-63
2023/06/27 06:09:51;;;;;;;0.80;0.70;;;;;;;24.07;43.92;100960.75;4504973;28;20034;-63
2023/06/27 06:12:02;;;;;;;1.35;0.70;;;;;;;24.06;43.56;100954.16;4507407;28;20037;-63
2023/06/27 06:14:12;;;;;;;0.63;0.60;;;;;;;24.09;43.34;100949.66;4512502;28;20041;-63
2023/06/27 06:16:23;;;;;;;0.95;0.65;;;;;;;24.08;43.91;100950.88;4513517;28;20038;-63
2023/06/27 06:18:34;;;;;;;1.42;0.70;;;;;;;24.07;43.74;100954.97;4506900;28;20153;-63
2023/06/27 06:20:44;;;;;;;1.38;0.60;;;;;;;24.02;43.86;100949.53;4503529;28;20262;-63
2023/06/27 06:22:55;;;;;;;0.77;0.70;;;;;;;24.06;44.73;100959.06;4507429;28;20044;-63
2023/06/27 06:25:07;;;;;;;0.63;0.60;;;;;;;24.04;44.10;100956.56;4508308;28;20347;-63
2023/06/27 06:27:17;;;;;;;1.95;0.85;;;;;;;24.05;44.56;100951.66;4503585;28;20988;-63
2023/06/27 06:29:28;;;;;;;1.40;0.80;;;;;;;24.03;44.22;100957.78;4506107;28;20037;-62
2023/06/27 06:31:41;;;;;;;0.95;0.70;;;;;;;24.06;43.92;100959.06;4505823;28;20056;-62
2023/06/27 06:33:53;;;;;;;1.05;0.60;;;;;;;24.03;44.34;100960.69;4524187;28;20120;-63
2023/06/27 06:36:05;;;;;;;1.75;0.73;;;;;;;24.00;45.08;100951.94;4508578;28;20042;-64
2023/06/27 06:38:15;;;;;;;1.00;0.80;;;;;;;23.99;44.39;100951.09;4511794;28;20029;-63
2023/06/27 06:40:29;;;;;;;1.50;0.88;;;;;;;24.00;44.26;100955.69;4508930;28;20041;-63
2023/06/27 06:42:39;;;;;;;1.20;0.80;;;;;;;23.98;44.16;100946.56;4510509;28;20034;-63
2023/06/27 06:44:49;;;;;;;2.13;0.90;;;;;;;24.02;44.31;100946.63;4510116;28;20025;-63
2023/06/27 06:47:00;;;;;;;0.93;0.65;;;;;;;24.06;44.36;100945.50;4508788;28;20040;-63
2023/06/27 06:49:10;;;;;;;0.80;0.80;;;;;;;24.01;44.86;100954.44;4509513;28;20038;-62
2023/06/27 06:51:22;;;;;;;0.95;0.80;;;;;;;23.88;44.77;100921.19;4508363;28;20760;-63
2023/06/27 06:53:33;;;;;;;0.88;0.70;;;;;;;24.00;45.11;100932.59;4509998;28;20545;-62
2023/06/27 06:55:43;;;;;;;0.70;0.70;;;;;;;23.99;44.71;100941.66;4508920;28;20060;-63
2023/06/27 06:57:54;;;;;;;1.17;0.80;;;;;;;24.03;44.53;100945.41;4508106;28;20038;-63
2023/06/27 07:00:07;;;;;;;1.20;0.77;;;;;;;24.07;44.47;100944.25;4507144;28;20397;-64
2023/06/27 07:02:18;;;;;;;0.90;0.60;;;;;;;24.10;44.86;100951.34;4509299;28;20040;-63
2023/06/27 07:04:28;;;;;;;1.13;0.65;;;;;;;24.11;44.80;100950.94;4515133;28;20045;-63
2023/06/27 07:06:39;;;;;;;0.90;0.60;;;;;;;24.09;45.97;100949.66;4507972;28;20056;-60
2023/06/27 07:08:49;;;;;;;0.80;0.80;;;;;;;24.06;45.84;100957.03;4490496;28;20839;-61
2023/06/27 07:11:00;;;;;;;0.98;0.80;;;;;;;23.98;45.38;100946.56;4509267;28;20147;-61
2023/06/27 07:13:10;;;;;;;1.52;1.02;;;;;;;24.00;44.90;100949.91;4509605;28;20038;-61
2023/06/27 07:15:23;;;;;;;1.23;0.82;;;;;;;24.02;45.60;100953.25;4507866;28;20099;-61
2023/06/27 07:17:34;;;;;;;1.10;0.70;;;;;;;24.03;45.18;100946.25;4508310;28;20026;-61
2023/06/27 07:19:44;;;;;;;1.30;0.80;;;;;;;24.02;45.11;100941.72;4514982;28;20033;-62
2023/06/27 07:21:54;;;;;;;1.63;1.08;;;;;;;24.04;45.56;100942.16;4515423;28;20045;-61
2023/06/27 07:24:06;;;;;;;1.15;0.80;;;;;;;24.03;45.58;100949.13;4507389;28;20069;-61
2023/06/27 07:26:16;;;;;;;1.08;0.80;;;;;;;24.02;46.45;100943.75;4506208;28;20617;-61
2023/06/27 07:28:27;;;;;;;1.38;0.82;;;;;;;24.00;46.10;100940.41;4508054;28;20621;-61
2023/06/27 07:30:37;;;;;;;1.25;0.90;;;;;;;23.98;46.24;100932.16;4506963;28;20040;-64
2023/06/27 07:32:48;;;;;;;2.30;1.00;;;;;;;23.92;46.31;100925.00;4506749;28;20061;-61
2023/06/27 07:34:58;;;;;;;0.98;0.88;;;;;;;24.04;46.37;100945.03;4509513;28;20808;-61
2023/06/27 07:37:08;;;;;;;1.17;0.93;;;;;;;24.04;45.85;100942.16;4509185;28;20180;-61
2023/06/27 07:39:19;;;;;;;1.77;0.90;;;;;;;24.05;45.83;100946.72;4507208;28;20058;-61
2023/06/27 07:41:29;;;;;;;1.35;0.90;;;;;;;23.93;45.93;100920.88;4522174;28;20591;-61
2023/06/27 07:43:40;;;;;;;1.38;0.90;;;;;;;24.06;46.25;100947.53;4506761;28;20061;-61
2023/06/27 07:45:50;;;;;;;0.80;0.80;;;;;;;24.07;46.24;100944.25;4508433;28;20129;-62
2023/06/27 07:48:00;;;;;;;1.17;0.70;;;;;;;24.04;46.20;100939.25;4508827;28;20529;-61
2023/06/27 07:50:11;;;;;;;2.15;0.90;;;;;;;24.09;46.01;100938.94;4507050;28;20038;-62
2023/06/27 07:52:21;;;;;;;1.33;0.70;;;;;;;24.07;45.81;100938.50;4508549;28;20104;-61
2023/06/27 07:54:32;;;;;;;1.58;0.80;;;;;;;24.07;46.29;100944.25;4504593;28;20044;-61
2023/06/27 07:56:42;;;;;;;1.75;1.10;;;;;;;24.05;46.18;100928.56;4508964;28;20021;-61
2023/06/27 07:58:53;;;;;;;1.58;0.90;;;;;;;24.03;44.62;100931.84;4508024;28;20065;-62
2023/06/27 08:01:03;;;;;;;1.02;0.70;;;;;;;24.06;45.13;100931.06;4508227;28;20045;-64
2023/06/27 08:03:14;;;;;;;1.15;0.80;;;;;;;24.07;44.53;100932.72;4506892;28;20087;-61
2023/06/27 08:05:27;;;;;;;0.80;0.60;;;;;;;24.07;45.51;100926.16;4505175;28;20049;-61
2023/06/27 08:07:38;;;;;;;1.65;0.90;;;;;;;24.07;45.38;100923.25;4507565;28;20667;-61
2023/06/27 08:09:48;;;;;;;0.93;0.70;;;;;;;24.08;45.28;100928.66;4509408;28;20481;-61
2023/06/27 08:11:59;;;;;;;1.42;0.80;;;;;;;24.04;44.88;100924.03;4507106;28;20042;-61
2023/06/27 08:14:09;;;;;;;1.13;0.80;;;;;;;24.06;44.38;100936.84;4506971;28;20094;-61
2023/06/27 08:16:20;;;;;;;1.00;0.85;;;;;;;24.03;44.94;100926.06;4508195;28;20034;-61
2023/06/27 08:18:30;;;;;;;0.70;0.70;;;;;;;24.07;44.23;100934.81;4507542;28;20022;-61
2023/06/27 08:20:41;;;;;;;0.88;0.60;;;;;;;24.04;43.51;100921.97;4521086;28;20037;-62
2023/06/27 08:22:51;;;;;;;1.58;0.80;;;;;;;24.08;43.29;100928.66;4507042;28;20084;-62
2023/06/27 08:25:02;;;;;;;1.00;0.70;;;;;;;24.07;43.22;100926.97;4506090;28;20105;-62
2023/06/27 08:27:13;;;;;;;0.95;0.90;;;;;;;24.07;43.22;100932.72;4506164;28;20053;-61
2023/06/27 08:29:24;;;;;;;1.25;0.77;;;;;;;24.04;43.17;100912.50;4508207;28;20092;-62
2023/06/27 08:31:34;;;;;;;1.45;0.98;;;;;;;24.02;44.61;100917.81;4506500;28;20497;-61
2023/06/27 08:33:45;;;;;;;1.48;0.70;;;;;;;24.10;44.06;100928.25;4506768;28;20042;-65
2023/06/27 08:35:55;;;;;;;1.40;0.70;;;;;;;23.97;44.30;100900.81;4506787;28;20450;-67
2023/06/27 08:38:06;;;;;;;1.38;0.70;;;;;;;24.06;43.43;100921.56;4504226;28;20135;-66
2023/06/27 08:40:21;;;;;;;0.77;0.50;;;;;;;23.99;42.92;100922.28;4507791;28;20034;-66
2023/06/27 08:42:32;;;;;;;1.85;0.70;;;;;;;23.96;42.88;100919.31;4507252;28;20610;-68
2023/06/27 08:44:43;;;;;;;1.60;0.60;;;;;;;23.87;42.89;100916.66;4506523;28;20025;-68
2023/06/27 08:46:56;;;;;;;0.98;0.60;;;;;;;23.88;43.48;100911.75;4507348;28;20037;-69
2023/06/27 08:49:12;;;;;;;1.17;0.70;;;;;;;23.76;43.85;100912.72;4507019;28;20706;-68
2023/06/27 08:51:24;;;;;;;1.55;1.00;;;;;;;23.77;44.14;100919.34;4506725;28;20077;-66
2023/06/27 08:53:37;;;;;;;1.88;1.00;;;;;;;23.76;44.60;100914.78;4507638;28;20036;-66
2023/06/27 08:56:03;;;;;;;2.45;0.95;;;;;;;23.73;44.70;100922.16;4503393;28;20069;-67
2023/06/27 08:58:17;;;;;;;1.33;0.88;;;;;;;23.63;45.41;100901.78;4505590;28;20064;-66
2023/06/27 09:00:30;;;;;;;1.75;1.10;;;;;;;23.67;45.18;100917.91;4505911;28;20508;-62
2023/06/27 09:02:42;;;;;;;1.75;0.93;;;;;;;23.66;45.51;100910.47;4643713;22;20060;-62
2023/06/27 09:04:53;;;;;;;1.25;0.90;;;;;;;23.66;44.41;100904.69;4541487;28;20136;-62
2023/06/27 09:07:04;;;;;;;1.70;1.00;;;;;;;23.68;44.96;100913.81;4539347;28;20041;-61
2023/06/27 09:09:16;;;;;;;1.70;1.00;;;;;;;23.73;45.68;100919.25;4536263;28;20041;-62
2023/06/27 09:11:26;;;;;;;1.67;1.00;;;;;;;23.72;45.60;100913.88;4532488;28;20033;-61
2023/06/27 09:13:37;;;;;;;2.00;1.10;;;;;;;23.74;45.97;100915.16;4535090;28;20497;-61
2023/06/27 09:15:48;;;;;;;1.85;0.90;;;;;;;23.77;46.05;100917.28;4534168;28;20029;-63
2023/06/27 09:17:58;;;;;;;2.15;0.90;;;;;;;23.76;45.40;100912.72;4512926;28;20048;-66
2023/06/27 09:20:10;;;;;;;1.75;0.90;;;;;;;23.77;44.92;100920.16;4531912;28;20033;-66
2023/06/27 09:22:23;;;;;;;1.27;0.98;;;;;;;23.76;45.00;100918.50;4534064;28;20534;-64
2023/06/27 09:24:40;;;;;;;1.60;1.08;;;;;;;23.74;45.41;100912.28;4518648;28;20115;-63
2023/06/27 09:26:50;;;;;;;;;;;;;;;23.82;45.37;100924.81;4530394;28;20137;-63
2023/06/27 09:29:01;;;;;;;1.15;1.00;;;;;;;23.82;45.77;100919.84;4531793;28;19923;-62
2023/06/27 09:31:15;;;;;;;1.48;1.10;;;;;;;23.82;45.98;100905.44;4520631;28;20041;-65
2023/06/27 09:33:26;;;;;;;1.38;0.90;;;;;;;23.81;46.96;100906.66;4512186;28;20025;-64
2023/06/27 09:35:44;;;;;;;1.20;1.00;;;;;;;23.83;46.77;100914.94;4531298;28;20044;-64
2023/06/27 09:38:08;;;;;;;1.10;0.90;;;;;;;23.84;46.40;100910.81;4528613;28;20576;-64
2023/06/27 09:40:27;;;;;;;1.00;0.90;;;;;;;23.83;45.73;100910.00;4543113;28;20033;-64
2023/06/27 09:42:48;;;;;;;1.60;1.15;;;;;;;23.86;45.56;100915.00;4488885;28;20050;-63
2023/06/27 09:45:16;;;;;;;1.75;0.95;;;;;;;23.87;44.48;100916.66;4530142;28;20051;-64
2023/06/27 09:47:27;;;;;;;1.67;0.90;;;;;;;23.84;43.98;100914.53;4530649;28;20079;-65
2023/06/27 09:49:41;;;;;;;1.27;1.08;;;;;;;23.83;44.20;100914.94;4531003;28;20238;-64
2023/06/27 09:51:53;;;;;;;1.00;0.90;;;;;;;23.81;44.23;100905.81;4531369;28;20118;-66
2023/06/27 09:54:04;;;;;;;1.08;0.90;;;;;;;23.85;44.81;100909.63;4531671;28;20583;-63
2023/06/27 09:56:15;;;;;;;1.83;0.95;;;;;;;23.82;45.62;100902.56;4530017;28;20041;-63
2023/06/27 09:58:27;;;;;;;1.42;0.73;;;;;;;23.90;45.37;100913.00;4528518;28;20113;-61
2023/06/27 10:00:38;;;;;;;0.90;0.80;;;;;;;23.87;44.32;100913.78;4529128;28;20037;-60
2023/06/27 10:02:49;;;;;;;1.50;0.90;;;;;;;23.87;44.41;100910.91;4531527;28;20029;-62
2023/06/27 10:05:00;;;;;;;1.95;1.10;;;;;;;23.86;44.50;100906.34;4530119;28;20045;-61
2023/06/27 10:07:14;;;;;;;1.30;0.90;;;;;;;23.88;44.50;100912.56;4533191;28;20816;-60
2023/06/27 10:09:24;;;;;;;1.40;0.90;;;;;;;23.88;44.89;100903.91;4530484;28;20640;-62
2023/06/27 10:11:37;;;;;;;1.92;1.00;;;;;;;23.93;44.21;100908.53;4520723;28;20106;-62